sensor_id;sensor_type;location;lat;lon;timestamp;P1;durP1;ratioP1;P2;durP2;ratioP2
33453;SDS011;39400;49.744;7.012;2023-05-10T00:00:20;4.88;;;3.90;;
33453;SDS011;39400;49.744;7.012;2023-05-10T00:02:45;5.68;;;4.60;;
33453;SDS011;39400;49.744;7.012;2023-05-10T00:05:11;5.18;;;4.35;;
33453;SDS011;39400;49.744;7.012;2023-05-10T00:07:36;8.25;;;5.38;;
33453;SDS011;39400;49.744;7.012;2023-05-10T00:10:01;6.22;;;5.03;;
33453;SDS011;39400;49.744;7.012;2023-05-10T00:12:28;8.43;;;5.10;;
33453;SDS011;39400;49.744;7.012;2023-05-10T00:14:53;6.93;;;5.30;;
33453;SDS011;39400;49.744;7.012;2023-05-10T00:17:18;6.93;;;4.82;;
33453;SDS011;39400;49.744;7.012;2023-05-10T00:19:43;6.30;;;5.47;;
33453;SDS011;39400;49.744;7.012;2023-05-10T00:22:09;6.88;;;4.35;;
33453;SDS011;39400;49.744;7.012;2023-05-10T00:24:34;6.03;;;4.68;;
33453;SDS011;39400;49.744;7.012;2023-05-10T00:26:59;5.43;;;4.70;;
33453;SDS011;39400;49.744;7.012;2023-05-10T00:29:25;5.88;;;4.55;;
33453;SDS011;39400;49.744;7.012;2023-05-10T00:31:50;4.00;;;3.30;;
33453;SDS011;39400;49.744;7.012;2023-05-10T00:34:15;5.63;;;4.22;;
33453;SDS011;39400;49.744;7.012;2023-05-10T00:36:41;4.45;;;3.28;;
33453;SDS011;39400;49.744;7.012;2023-05-10T00:39:06;5.57;;;3.15;;
33453;SDS011;39400;49.744;7.012;2023-05-10T00:41:31;3.22;;;2.50;;
33453;SDS011;39400;49.744;7.012;2023-05-10T00:43:57;4.38;;;3.47;;
33453;SDS011;39400;49.744;7.012;2023-05-10T00:46:23;3.78;;;2.65;;
33453;SDS011;39400;49.744;7.012;2023-05-10T00:48:49;3.45;;;2.60;;
33453;SDS011;39400;49.744;7.012;2023-05-10T00:51:15;3.72;;;2.13;;
33453;SDS011;39400;49.744;7.012;2023-05-10T00:53:40;3.35;;;2.10;;
33453;SDS011;39400;49.744;7.012;2023-05-10T00:56:06;3.05;;;2.10;;
33453;SDS011;39400;49.744;7.012;2023-05-10T00:58:31;5.75;;;2.45;;
33453;SDS011;39400;49.744;7.012;2023-05-10T01:00:57;3.05;;;2.28;;
33453;SDS011;39400;49.744;7.012;2023-05-10T01:03:23;7.15;;;2.60;;
33453;SDS011;39400;49.744;7.012;2023-05-10T01:05:49;4.88;;;3.45;;
33453;SDS011;39400;49.744;7.012;2023-05-10T01:08:15;4.68;;;3.55;;
33453;SDS011;39400;49.744;7.012;2023-05-10T01:10:40;6.03;;;3.70;;
33453;SDS011;39400;49.744;7.012;2023-05-10T01:13:06;6.18;;;3.63;;
33453;SDS011;39400;49.744;7.012;2023-05-10T01:15:32;6.97;;;3.90;;
33453;SDS011;39400;49.744;7.012;2023-05-10T01:17:58;9.70;;;3.97;;
33453;SDS011;39400;49.744;7.012;2023-05-10T01:20:24;3.55;;;2.88;;
33453;SDS011;39400;49.744;7.012;2023-05-10T01:23:00;5.10;;;3.45;;
33453;SDS011;39400;49.744;7.012;2023-05-10T01:28:39;4.40;;;3.28;;
33453;SDS011;39400;49.744;7.012;2023-05-10T01:33:56;5.75;;;4.18;;
33453;SDS011;39400;49.744;7.012;2023-05-10T01:36:32;5.97;;;3.80;;
33453;SDS011;39400;49.744;7.012;2023-05-10T01:41:36;6.25;;;4.20;;
33453;SDS011;39400;49.744;7.012;2023-05-10T01:47:10;9.27;;;4.03;;
33453;SDS011;39400;49.744;7.012;2023-05-10T01:49:45;12.63;;;4.60;;
33453;SDS011;39400;49.744;7.012;2023-05-10T01:52:15;6.97;;;4.15;;
33453;SDS011;39400;49.744;7.012;2023-05-10T01:54:44;8.57;;;4.67;;
33453;SDS011;39400;49.744;7.012;2023-05-10T01:57:16;9.48;;;4.70;;
33453;SDS011;39400;49.744;7.012;2023-05-10T01:59:45;6.38;;;4.80;;
33453;SDS011;39400;49.744;7.012;2023-05-10T02:02:14;8.10;;;3.65;;
33453;SDS011;39400;49.744;7.012;2023-05-10T02:04:42;6.68;;;4.05;;
33453;SDS011;39400;49.744;7.012;2023-05-10T02:07:10;7.75;;;4.03;;
33453;SDS011;39400;49.744;7.012;2023-05-10T02:09:36;7.22;;;4.38;;
33453;SDS011;39400;49.744;7.012;2023-05-10T02:12:03;6.20;;;3.67;;
33453;SDS011;39400;49.744;7.012;2023-05-10T02:14:32;7.72;;;3.70;;
33453;SDS011;39400;49.744;7.012;2023-05-10T02:17:00;11.07;;;4.57;;
33453;SDS011;39400;49.744;7.012;2023-05-10T02:19:27;7.82;;;4.57;;
33453;SDS011;39400;49.744;7.012;2023-05-10T02:21:55;8.20;;;4.90;;
33453;SDS011;39400;49.744;7.012;2023-05-10T02:24:24;9.25;;;4.40;;
33453;SDS011;39400;49.744;7.012;2023-05-10T02:26:51;10.98;;;4.63;;
33453;SDS011;39400;49.744;7.012;2023-05-10T02:29:19;7.50;;;4.22;;
33453;SDS011;39400;49.744;7.012;2023-05-10T02:31:47;10.02;;;4.97;;
33453;SDS011;39400;49.744;7.012;2023-05-10T02:34:13;8.23;;;4.63;;
33453;SDS011;39400;49.744;7.012;2023-05-10T02:36:38;6.90;;;4.15;;
33453;SDS011;39400;49.744;7.012;2023-05-10T02:39:06;11.82;;;6.05;;
33453;SDS011;39400;49.744;7.012;2023-05-10T02:41:32;11.82;;;5.10;;
33453;SDS011;39400;49.744;7.012;2023-05-10T02:43:59;9.05;;;5.05;;
33453;SDS011;39400;49.744;7.012;2023-05-10T02:46:27;8.73;;;4.53;;
33453;SDS011;39400;49.744;7.012;2023-05-10T02:48:54;7.15;;;5.38;;
33453;SDS011;39400;49.744;7.012;2023-05-10T02:51:20;10.10;;;5.75;;
33453;SDS011;39400;49.744;7.012;2023-05-10T02:53:50;7.47;;;4.53;;
33453;SDS011;39400;49.744;7.012;2023-05-10T02:56:25;8.45;;;4.38;;
33453;SDS011;39400;49.744;7.012;2023-05-10T02:58:56;6.60;;;4.25;;
33453;SDS011;39400;49.744;7.012;2023-05-10T03:01:21;7.30;;;4.68;;
33453;SDS011;39400;49.744;7.012;2023-05-10T03:03:47;6.60;;;4.03;;
33453;SDS011;39400;49.744;7.012;2023-05-10T03:06:13;7.40;;;4.22;;
33453;SDS011;39400;49.744;7.012;2023-05-10T03:08:38;8.85;;;4.18;;
33453;SDS011;39400;49.744;7.012;2023-05-10T03:16:56;8.85;;;4.30;;
33453;SDS011;39400;49.744;7.012;2023-05-10T03:19:32;8.55;;;4.78;;
33453;SDS011;39400;49.744;7.012;2023-05-10T03:22:04;7.20;;;4.25;;
33453;SDS011;39400;49.744;7.012;2023-05-10T03:24:35;13.75;;;4.68;;
33453;SDS011;39400;49.744;7.012;2023-05-10T03:27:04;10.00;;;5.55;;
33453;SDS011;39400;49.744;7.012;2023-05-10T03:29:31;9.48;;;4.97;;
33453;SDS011;39400;49.744;7.012;2023-05-10T03:31:58;14.32;;;6.03;;
33453;SDS011;39400;49.744;7.012;2023-05-10T03:34:24;10.70;;;4.38;;
33453;SDS011;39400;49.744;7.012;2023-05-10T03:36:51;8.38;;;5.30;;
33453;SDS011;39400;49.744;7.012;2023-05-10T03:39:16;10.93;;;5.57;;
33453;SDS011;39400;49.744;7.012;2023-05-10T03:41:47;8.68;;;4.85;;
33453;SDS011;39400;49.744;7.012;2023-05-10T03:44:13;6.75;;;4.30;;
33453;SDS011;39400;49.744;7.012;2023-05-10T03:46:38;10.32;;;4.43;;
33453;SDS011;39400;49.744;7.012;2023-05-10T03:49:03;11.15;;;5.45;;
33453;SDS011;39400;49.744;7.012;2023-05-10T03:51:29;7.97;;;4.10;;
33453;SDS011;39400;49.744;7.012;2023-05-10T03:53:54;10.27;;;4.45;;
33453;SDS011;39400;49.744;7.012;2023-05-10T03:56:19;10.20;;;5.53;;
33453;SDS011;39400;49.744;7.012;2023-05-10T03:58:45;6.05;;;4.60;;
33453;SDS011;39400;49.744;7.012;2023-05-10T04:01:10;8.90;;;4.63;;
33453;SDS011;39400;49.744;7.012;2023-05-10T04:03:36;9.05;;;4.68;;
33453;SDS011;39400;49.744;7.012;2023-05-10T04:06:01;7.75;;;4.97;;
33453;SDS011;39400;49.744;7.012;2023-05-10T04:08:27;9.60;;;6.45;;
33453;SDS011;39400;49.744;7.012;2023-05-10T04:10:52;18.58;;;8.90;;
33453;SDS011;39400;49.744;7.012;2023-05-10T04:13:18;12.07;;;7.65;;
33453;SDS011;39400;49.744;7.012;2023-05-10T04:15:43;9.05;;;6.15;;
33453;SDS011;39400;49.744;7.012;2023-05-10T04:18:08;14.55;;;8.38;;
33453;SDS011;39400;49.744;7.012;2023-05-10T04:20:34;8.43;;;5.03;;
33453;SDS011;39400;49.744;7.012;2023-05-10T04:22:59;7.40;;;5.50;;
33453;SDS011;39400;49.744;7.012;2023-05-10T04:25:24;7.07;;;4.40;;
33453;SDS011;39400;49.744;7.012;2023-05-10T04:27:50;9.82;;;4.38;;
33453;SDS011;39400;49.744;7.012;2023-05-10T04:30:15;7.25;;;4.32;;
33453;SDS011;39400;49.744;7.012;2023-05-10T04:32:41;7.47;;;3.95;;
33453;SDS011;39400;49.744;7.012;2023-05-10T04:35:06;6.35;;;4.32;;
33453;SDS011;39400;49.744;7.012;2023-05-10T04:37:32;3.95;;;3.20;;
33453;SDS011;39400;49.744;7.012;2023-05-10T04:39:57;5.05;;;3.30;;
33453;SDS011;39400;49.744;7.012;2023-05-10T04:42:22;5.82;;;3.25;;
33453;SDS011;39400;49.744;7.012;2023-05-10T04:44:47;4.53;;;2.90;;
33453;SDS011;39400;49.744;7.012;2023-05-10T04:47:13;4.50;;;2.80;;
33453;SDS011;39400;49.744;7.012;2023-05-10T04:49:38;5.88;;;3.80;;
33453;SDS011;39400;49.744;7.012;2023-05-10T04:52:03;7.32;;;3.28;;
33453;SDS011;39400;49.744;7.012;2023-05-10T04:54:29;6.55;;;2.80;;
33453;SDS011;39400;49.744;7.012;2023-05-10T04:56:54;2.83;;;2.03;;
33453;SDS011;39400;49.744;7.012;2023-05-10T04:59:20;3.38;;;2.22;;
33453;SDS011;39400;49.744;7.012;2023-05-10T05:01:45;6.35;;;2.25;;
33453;SDS011;39400;49.744;7.012;2023-05-10T05:04:10;3.65;;;1.90;;
33453;SDS011;39400;49.744;7.012;2023-05-10T05:06:35;2.90;;;2.00;;
33453;SDS011;39400;49.744;7.012;2023-05-10T05:09:01;2.30;;;1.98;;
33453;SDS011;39400;49.744;7.012;2023-05-10T05:11:26;2.70;;;2.28;;
33453;SDS011;39400;49.744;7.012;2023-05-10T05:13:51;4.43;;;2.97;;
33453;SDS011;39400;49.744;7.012;2023-05-10T05:16:17;2.55;;;1.88;;
33453;SDS011;39400;49.744;7.012;2023-05-10T05:18:42;3.40;;;1.48;;
33453;SDS011;39400;49.744;7.012;2023-05-10T05:21:14;3.17;;;1.83;;
33453;SDS011;39400;49.744;7.012;2023-05-10T05:23:43;2.03;;;1.42;;
33453;SDS011;39400;49.744;7.012;2023-05-10T05:26:09;3.35;;;1.75;;
33453;SDS011;39400;49.744;7.012;2023-05-10T05:28:34;3.20;;;1.73;;
33453;SDS011;39400;49.744;7.012;2023-05-10T05:30:59;3.75;;;1.85;;
33453;SDS011;39400;49.744;7.012;2023-05-10T05:33:24;5.40;;;1.73;;
33453;SDS011;39400;49.744;7.012;2023-05-10T05:35:50;2.83;;;1.30;;
33453;SDS011;39400;49.744;7.012;2023-05-10T05:38:15;3.95;;;1.50;;
33453;SDS011;39400;49.744;7.012;2023-05-10T05:40:40;3.22;;;1.30;;
33453;SDS011;39400;49.744;7.012;2023-05-10T05:43:06;1.52;;;1.35;;
33453;SDS011;39400;49.744;7.012;2023-05-10T05:45:31;4.50;;;1.20;;
33453;SDS011;39400;49.744;7.012;2023-05-10T05:47:56;3.75;;;0.90;;
33453;SDS011;39400;49.744;7.012;2023-05-10T05:50:22;3.05;;;1.10;;
33453;SDS011;39400;49.744;7.012;2023-05-10T05:52:47;1.00;;;0.80;;
33453;SDS011;39400;49.744;7.012;2023-05-10T05:55:12;2.97;;;0.98;;
33453;SDS011;39400;49.744;7.012;2023-05-10T05:57:38;3.85;;;0.98;;
33453;SDS011;39400;49.744;7.012;2023-05-10T06:00:03;1.55;;;0.80;;
33453;SDS011;39400;49.744;7.012;2023-05-10T06:02:37;2.97;;;0.68;;
33453;SDS011;39400;49.744;7.012;2023-05-10T06:05:03;0.70;;;0.70;;
33453;SDS011;39400;49.744;7.012;2023-05-10T06:07:28;1.70;;;0.85;;
33453;SDS011;39400;49.744;7.012;2023-05-10T06:09:53;0.90;;;0.60;;
33453;SDS011;39400;49.744;7.012;2023-05-10T06:12:19;0.50;;;0.50;;
33453;SDS011;39400;49.744;7.012;2023-05-10T06:14:44;2.10;;;0.77;;
33453;SDS011;39400;49.744;7.012;2023-05-10T06:17:09;1.23;;;0.57;;
33453;SDS011;39400;49.744;7.012;2023-05-10T06:19:35;1.73;;;0.60;;
33453;SDS011;39400;49.744;7.012;2023-05-10T06:22:00;0.60;;;0.60;;
33453;SDS011;39400;49.744;7.012;2023-05-10T06:24:25;1.85;;;0.93;;
33453;SDS011;39400;49.744;7.012;2023-05-10T06:26:50;2.92;;;0.75;;
33453;SDS011;39400;49.744;7.012;2023-05-10T06:29:16;0.90;;;0.75;;
33453;SDS011;39400;49.744;7.012;2023-05-10T06:31:41;1.40;;;1.00;;
33453;SDS011;39400;49.744;7.012;2023-05-10T06:34:06;0.80;;;0.80;;
33453;SDS011;39400;49.744;7.012;2023-05-10T06:36:32;1.48;;;0.90;;
33453;SDS011;39400;49.744;7.012;2023-05-10T06:38:57;1.20;;;0.70;;
33453;SDS011;39400;49.744;7.012;2023-05-10T06:41:22;1.02;;;0.93;;
33453;SDS011;39400;49.744;7.012;2023-05-10T06:43:47;0.98;;;0.85;;
33453;SDS011;39400;49.744;7.012;2023-05-10T06:46:13;3.30;;;1.00;;
33453;SDS011;39400;49.744;7.012;2023-05-10T06:48:38;1.90;;;0.90;;
33453;SDS011;39400;49.744;7.012;2023-05-10T06:51:03;2.28;;;1.00;;
33453;SDS011;39400;49.744;7.012;2023-05-10T06:53:29;2.38;;;1.30;;
33453;SDS011;39400;49.744;7.012;2023-05-10T06:55:54;1.88;;;1.33;;
33453;SDS011;39400;49.744;7.012;2023-05-10T06:58:19;1.00;;;0.90;;
33453;SDS011;39400;49.744;7.012;2023-05-10T07:00:44;2.90;;;1.17;;
33453;SDS011;39400;49.744;7.012;2023-05-10T07:03:10;4.78;;;1.25;;
33453;SDS011;39400;49.744;7.012;2023-05-10T07:05:35;3.55;;;1.00;;
33453;SDS011;39400;49.744;7.012;2023-05-10T07:08:01;1.48;;;1.13;;
33453;SDS011;39400;49.744;7.012;2023-05-10T07:10:26;1.10;;;0.80;;
33453;SDS011;39400;49.744;7.012;2023-05-10T07:12:51;1.00;;;0.93;;
33453;SDS011;39400;49.744;7.012;2023-05-10T07:15:17;0.82;;;0.80;;
33453;SDS011;39400;49.744;7.012;2023-05-10T07:17:42;5.15;;;0.90;;
33453;SDS011;39400;49.744;7.012;2023-05-10T07:20:07;0.68;;;0.68;;
33453;SDS011;39400;49.744;7.012;2023-05-10T07:22:33;2.60;;;0.80;;
33453;SDS011;39400;49.744;7.012;2023-05-10T07:24:58;1.48;;;0.80;;
33453;SDS011;39400;49.744;7.012;2023-05-10T07:27:24;3.75;;;1.45;;
33453;SDS011;39400;49.744;7.012;2023-05-10T07:29:50;0.75;;;0.60;;
33453;SDS011;39400;49.744;7.012;2023-05-10T07:32:15;0.98;;;0.80;;
33453;SDS011;39400;49.744;7.012;2023-05-10T07:34:40;2.63;;;0.95;;
33453;SDS011;39400;49.744;7.012;2023-05-10T07:37:05;3.30;;;0.90;;
33453;SDS011;39400;49.744;7.012;2023-05-10T07:39:31;1.67;;;0.90;;
33453;SDS011;39400;49.744;7.012;2023-05-10T07:41:56;1.15;;;1.00;;
33453;SDS011;39400;49.744;7.012;2023-05-10T07:44:22;3.55;;;1.00;;
33453;SDS011;39400;49.744;7.012;2023-05-10T07:46:47;1.42;;;1.30;;
33453;SDS011;39400;49.744;7.012;2023-05-10T07:49:13;2.92;;;1.38;;
33453;SDS011;39400;49.744;7.012;2023-05-10T07:51:38;2.55;;;1.42;;
33453;SDS011;39400;49.744;7.012;2023-05-10T07:54:03;2.25;;;1.30;;
33453;SDS011;39400;49.744;7.012;2023-05-10T07:56:29;2.97;;;1.05;;
33453;SDS011;39400;49.744;7.012;2023-05-10T07:58:56;1.25;;;1.10;;
33453;SDS011;39400;49.744;7.012;2023-05-10T08:01:22;2.80;;;1.60;;
33453;SDS011;39400;49.744;7.012;2023-05-10T08:03:48;4.00;;;1.40;;
33453;SDS011;39400;49.744;7.012;2023-05-10T08:06:14;2.47;;;1.40;;
33453;SDS011;39400;49.744;7.012;2023-05-10T08:08:40;5.95;;;1.90;;
33453;SDS011;39400;49.744;7.012;2023-05-10T08:11:05;6.07;;;2.45;;
33453;SDS011;39400;49.744;7.012;2023-05-10T08:13:30;1.73;;;0.98;;
33453;SDS011;39400;49.744;7.012;2023-05-10T08:15:55;6.05;;;1.52;;
33453;SDS011;39400;49.744;7.012;2023-05-10T08:18:21;0.80;;;0.75;;
33453;SDS011;39400;49.744;7.012;2023-05-10T08:20:46;2.15;;;1.20;;
33453;SDS011;39400;49.744;7.012;2023-05-10T08:23:12;2.45;;;1.10;;
33453;SDS011;39400;49.744;7.012;2023-05-10T08:25:37;2.55;;;1.25;;
33453;SDS011;39400;49.744;7.012;2023-05-10T08:28:03;1.60;;;0.85;;
33453;SDS011;39400;49.744;7.012;2023-05-10T08:30:28;1.60;;;1.08;;
33453;SDS011;39400;49.744;7.012;2023-05-10T08:32:53;2.47;;;0.80;;
33453;SDS011;39400;49.744;7.012;2023-05-10T08:35:19;1.27;;;1.02;;
33453;SDS011;39400;49.744;7.012;2023-05-10T08:37:44;2.80;;;1.17;;
33453;SDS011;39400;49.744;7.012;2023-05-10T08:40:09;4.03;;;1.15;;
33453;SDS011;39400;49.744;7.012;2023-05-10T08:42:36;1.63;;;1.13;;
33453;SDS011;39400;49.744;7.012;2023-05-10T08:45:05;1.57;;;0.97;;
33453;SDS011;39400;49.744;7.012;2023-05-10T08:47:32;3.80;;;1.00;;
33453;SDS011;39400;49.744;7.012;2023-05-10T08:50:00;2.05;;;0.85;;
33453;SDS011;39400;49.744;7.012;2023-05-10T08:52:27;1.73;;;1.00;;
33453;SDS011;39400;49.744;7.012;2023-05-10T08:54:54;2.65;;;1.10;;
33453;SDS011;39400;49.744;7.012;2023-05-10T08:57:20;1.88;;;1.15;;
33453;SDS011;39400;49.744;7.012;2023-05-10T08:59:46;1.85;;;0.90;;
33453;SDS011;39400;49.744;7.012;2023-05-10T09:02:11;2.05;;;1.25;;
33453;SDS011;39400;49.744;7.012;2023-05-10T09:04:38;1.65;;;1.00;;
33453;SDS011;39400;49.744;7.012;2023-05-10T09:07:04;2.95;;;0.90;;
33453;SDS011;39400;49.744;7.012;2023-05-10T09:09:29;2.67;;;1.10;;
33453;SDS011;39400;49.744;7.012;2023-05-10T09:11:56;2.28;;;1.58;;
33453;SDS011;39400;49.744;7.012;2023-05-10T09:14:21;1.33;;;1.10;;
33453;SDS011;39400;49.744;7.012;2023-05-10T09:16:48;4.80;;;0.98;;
33453;SDS011;39400;49.744;7.012;2023-05-10T09:19:14;1.20;;;0.77;;
33453;SDS011;39400;49.744;7.012;2023-05-10T09:21:39;1.42;;;0.70;;
33453;SDS011;39400;49.744;7.012;2023-05-10T09:24:05;1.30;;;0.55;;
33453;SDS011;39400;49.744;7.012;2023-05-10T09:26:31;1.55;;;0.60;;
33453;SDS011;39400;49.744;7.012;2023-05-10T09:28:58;3.72;;;1.02;;
33453;SDS011;39400;49.744;7.012;2023-05-10T09:31:24;4.70;;;1.15;;
33453;SDS011;39400;49.744;7.012;2023-05-10T09:34:09;1.77;;;1.00;;
33453;SDS011;39400;49.744;7.012;2023-05-10T09:36:34;1.75;;;1.15;;
33453;SDS011;39400;49.744;7.012;2023-05-10T09:38:59;1.35;;;0.82;;
33453;SDS011;39400;49.744;7.012;2023-05-10T09:41:25;1.60;;;0.75;;
33453;SDS011;39400;49.744;7.012;2023-05-10T09:43:52;1.50;;;0.88;;
33453;SDS011;39400;49.744;7.012;2023-05-10T09:46:21;2.67;;;0.95;;
33453;SDS011;39400;49.744;7.012;2023-05-10T09:48:47;2.75;;;0.90;;
33453;SDS011;39400;49.744;7.012;2023-05-10T09:51:24;1.92;;;1.00;;
33453;SDS011;39400;49.744;7.012;2023-05-10T09:54:08;3.55;;;1.45;;
33453;SDS011;39400;49.744;7.012;2023-05-10T09:56:38;3.53;;;1.20;;
33453;SDS011;39400;49.744;7.012;2023-05-10T09:59:04;4.53;;;1.77;;
33453;SDS011;39400;49.744;7.012;2023-05-10T10:01:30;3.33;;;1.30;;
33453;SDS011;39400;49.744;7.012;2023-05-10T10:03:55;4.15;;;1.48;;
33453;SDS011;39400;49.744;7.012;2023-05-10T10:06:21;3.72;;;1.30;;
33453;SDS011;39400;49.744;7.012;2023-05-10T10:08:46;2.58;;;1.58;;
33453;SDS011;39400;49.744;7.012;2023-05-10T10:11:11;3.22;;;1.40;;
33453;SDS011;39400;49.744;7.012;2023-05-10T10:13:37;3.80;;;1.65;;
33453;SDS011;39400;49.744;7.012;2023-05-10T10:16:02;3.28;;;1.50;;
33453;SDS011;39400;49.744;7.012;2023-05-10T10:18:28;4.07;;;1.52;;
33453;SDS011;39400;49.744;7.012;2023-05-10T10:20:55;4.25;;;1.55;;
33453;SDS011;39400;49.744;7.012;2023-05-10T10:23:21;3.58;;;1.35;;
33453;SDS011;39400;49.744;7.012;2023-05-10T10:25:46;2.55;;;1.23;;
33453;SDS011;39400;49.744;7.012;2023-05-10T10:31:15;5.25;;;3.45;;
33453;SDS011;39400;49.744;7.012;2023-05-10T10:33:59;4.93;;;1.65;;
33453;SDS011;39400;49.744;7.012;2023-05-10T10:36:28;4.05;;;1.20;;
33453;SDS011;39400;49.744;7.012;2023-05-10T10:38:54;3.95;;;1.42;;
33453;SDS011;39400;49.744;7.012;2023-05-10T10:41:53;2.65;;;1.40;;
33453;SDS011;39400;49.744;7.012;2023-05-10T10:49:33;5.35;;;1.25;;
33453;SDS011;39400;49.744;7.012;2023-05-10T10:57:24;10.10;;;1.80;;
33453;SDS011;39400;49.744;7.012;2023-05-10T10:59:49;5.38;;;1.88;;
33453;SDS011;39400;49.744;7.012;2023-05-10T11:02:34;7.47;;;2.40;;
33453;SDS011;39400;49.744;7.012;2023-05-10T11:04:59;8.13;;;1.60;;
33453;SDS011;39400;49.744;7.012;2023-05-10T11:07:24;5.32;;;1.48;;
33453;SDS011;39400;49.744;7.012;2023-05-10T11:09:50;5.68;;;1.70;;
33453;SDS011;39400;49.744;7.012;2023-05-10T11:12:15;7.32;;;2.78;;
33453;SDS011;39400;49.744;7.012;2023-05-10T11:14:40;5.78;;;1.73;;
33453;SDS011;39400;49.744;7.012;2023-05-10T11:17:25;4.20;;;1.38;;
33453;SDS011;39400;49.744;7.012;2023-05-10T11:20:07;5.35;;;1.55;;
33453;SDS011;39400;49.744;7.012;2023-05-10T11:22:48;5.03;;;1.55;;
33453;SDS011;39400;49.744;7.012;2023-05-10T11:25:15;7.75;;;1.48;;
33453;SDS011;39400;49.744;7.012;2023-05-10T11:27:41;9.18;;;1.70;;
33453;SDS011;39400;49.744;7.012;2023-05-10T11:30:06;2.50;;;1.10;;
33453;SDS011;39400;49.744;7.012;2023-05-10T11:32:34;4.97;;;1.75;;
33453;SDS011;39400;49.744;7.012;2023-05-10T11:35:09;5.28;;;1.27;;
33453;SDS011;39400;49.744;7.012;2023-05-10T11:37:35;10.75;;;2.20;;
33453;SDS011;39400;49.744;7.012;2023-05-10T11:40:01;3.28;;;1.20;;
33453;SDS011;39400;49.744;7.012;2023-05-10T11:42:27;6.25;;;1.48;;
33453;SDS011;39400;49.744;7.012;2023-05-10T11:44:53;5.05;;;1.70;;
33453;SDS011;39400;49.744;7.012;2023-05-10T11:47:18;2.08;;;1.10;;
33453;SDS011;39400;49.744;7.012;2023-05-10T11:49:44;5.45;;;1.58;;
33453;SDS011;39400;49.744;7.012;2023-05-10T11:52:10;6.45;;;1.08;;
33453;SDS011;39400;49.744;7.012;2023-05-10T11:54:35;5.05;;;2.05;;
33453;SDS011;39400;49.744;7.012;2023-05-10T11:57:00;3.85;;;1.10;;
33453;SDS011;39400;49.744;7.012;2023-05-10T11:59:26;4.35;;;1.13;;
33453;SDS011;39400;49.744;7.012;2023-05-10T12:01:51;3.05;;;1.20;;
33453;SDS011;39400;49.744;7.012;2023-05-10T12:04:16;2.10;;;0.85;;
33453;SDS011;39400;49.744;7.012;2023-05-10T12:06:42;5.97;;;1.38;;
33453;SDS011;39400;49.744;7.012;2023-05-10T12:09:07;9.23;;;1.73;;
33453;SDS011;39400;49.744;7.012;2023-05-10T12:11:35;4.22;;;1.10;;
33453;SDS011;39400;49.744;7.012;2023-05-10T12:14:03;3.42;;;1.20;;
33453;SDS011;39400;49.744;7.012;2023-05-10T12:16:29;5.35;;;0.90;;
33453;SDS011;39400;49.744;7.012;2023-05-10T12:18:58;8.80;;;1.55;;
33453;SDS011;39400;49.744;7.012;2023-05-10T12:21:25;3.15;;;1.10;;
33453;SDS011;39400;49.744;7.012;2023-05-10T12:23:52;8.10;;;1.17;;
33453;SDS011;39400;49.744;7.012;2023-05-10T12:26:22;3.70;;;1.30;;
33453;SDS011;39400;49.744;7.012;2023-05-10T12:28:48;7.50;;;1.40;;
33453;SDS011;39400;49.744;7.012;2023-05-10T12:31:13;4.90;;;1.95;;
33453;SDS011;39400;49.744;7.012;2023-05-10T12:33:39;3.25;;;1.45;;
33453;SDS011;39400;49.744;7.012;2023-05-10T12:36:06;2.45;;;1.05;;
33453;SDS011;39400;49.744;7.012;2023-05-10T12:38:35;2.40;;;0.95;;
33453;SDS011;39400;49.744;7.012;2023-05-10T12:41:02;4.60;;;1.42;;
33453;SDS011;39400;49.744;7.012;2023-05-10T12:43:32;10.57;;;2.28;;
33453;SDS011;39400;49.744;7.012;2023-05-10T12:46:03;7.07;;;1.50;;
33453;SDS011;39400;49.744;7.012;2023-05-10T12:48:39;6.38;;;1.60;;
33453;SDS011;39400;49.744;7.012;2023-05-10T12:51:05;5.80;;;1.30;;
33453;SDS011;39400;49.744;7.012;2023-05-10T12:53:31;4.22;;;1.05;;
33453;SDS011;39400;49.744;7.012;2023-05-10T12:55:57;4.50;;;1.85;;
33453;SDS011;39400;49.744;7.012;2023-05-10T12:58:22;3.58;;;1.13;;
33453;SDS011;39400;49.744;7.012;2023-05-10T13:00:47;3.88;;;1.70;;
33453;SDS011;39400;49.744;7.012;2023-05-10T13:03:13;4.38;;;1.45;;
33453;SDS011;39400;49.744;7.012;2023-05-10T13:05:38;5.15;;;1.58;;
33453;SDS011;39400;49.744;7.012;2023-05-10T13:08:04;3.92;;;1.05;;
33453;SDS011;39400;49.744;7.012;2023-05-10T13:10:29;4.40;;;1.35;;
33453;SDS011;39400;49.744;7.012;2023-05-10T13:12:56;4.03;;;1.15;;
33453;SDS011;39400;49.744;7.012;2023-05-10T13:15:22;3.88;;;0.90;;
33453;SDS011;39400;49.744;7.012;2023-05-10T13:17:47;9.55;;;1.20;;
33453;SDS011;39400;49.744;7.012;2023-05-10T13:20:12;3.28;;;1.10;;
33453;SDS011;39400;49.744;7.012;2023-05-10T13:22:38;10.40;;;2.03;;
33453;SDS011;39400;49.744;7.012;2023-05-10T13:25:03;6.30;;;1.30;;
33453;SDS011;39400;49.744;7.012;2023-05-10T13:27:29;3.72;;;1.15;;
33453;SDS011;39400;49.744;7.012;2023-05-10T13:29:54;9.02;;;1.42;;
33453;SDS011;39400;49.744;7.012;2023-05-10T13:32:19;4.78;;;0.77;;
33453;SDS011;39400;49.744;7.012;2023-05-10T13:34:45;3.40;;;1.20;;
33453;SDS011;39400;49.744;7.012;2023-05-10T13:37:10;3.08;;;0.77;;
33453;SDS011;39400;49.744;7.012;2023-05-10T13:39:35;7.25;;;1.80;;
33453;SDS011;39400;49.744;7.012;2023-05-10T13:42:00;2.15;;;0.73;;
33453;SDS011;39400;49.744;7.012;2023-05-10T13:44:26;3.45;;;1.08;;
33453;SDS011;39400;49.744;7.012;2023-05-10T13:46:51;2.88;;;0.82;;
33453;SDS011;39400;49.744;7.012;2023-05-10T13:49:16;4.25;;;1.10;;
33453;SDS011;39400;49.744;7.012;2023-05-10T13:51:42;3.92;;;1.00;;
33453;SDS011;39400;49.744;7.012;2023-05-10T13:54:08;2.78;;;0.77;;
33453;SDS011;39400;49.744;7.012;2023-05-10T13:56:33;3.35;;;1.02;;
33453;SDS011;39400;49.744;7.012;2023-05-10T13:58:59;5.35;;;1.02;;
33453;SDS011;39400;49.744;7.012;2023-05-10T14:01:24;1.30;;;0.70;;
33453;SDS011;39400;49.744;7.012;2023-05-10T14:03:49;5.03;;;0.90;;
33453;SDS011;39400;49.744;7.012;2023-05-10T14:06:15;3.55;;;1.27;;
33453;SDS011;39400;49.744;7.012;2023-05-10T14:08:40;5.90;;;0.90;;
33453;SDS011;39400;49.744;7.012;2023-05-10T14:11:05;5.15;;;1.15;;
33453;SDS011;39400;49.744;7.012;2023-05-10T14:13:31;4.68;;;1.08;;
33453;SDS011;39400;49.744;7.012;2023-05-10T14:15:56;2.35;;;0.70;;
33453;SDS011;39400;49.744;7.012;2023-05-10T14:18:21;2.13;;;0.90;;
33453;SDS011;39400;49.744;7.012;2023-05-10T14:20:47;3.22;;;0.65;;
33453;SDS011;39400;49.744;7.012;2023-05-10T14:23:12;1.92;;;0.70;;
33453;SDS011;39400;49.744;7.012;2023-05-10T14:25:38;3.63;;;0.82;;
33453;SDS011;39400;49.744;7.012;2023-05-10T14:28:04;2.10;;;0.85;;
33453;SDS011;39400;49.744;7.012;2023-05-10T14:30:31;8.18;;;1.13;;
33453;SDS011;39400;49.744;7.012;2023-05-10T14:32:56;3.28;;;1.20;;
33453;SDS011;39400;49.744;7.012;2023-05-10T14:35:21;3.10;;;0.80;;
33453;SDS011;39400;49.744;7.012;2023-05-10T14:37:47;1.30;;;0.70;;
33453;SDS011;39400;49.744;7.012;2023-05-10T14:40:12;3.53;;;1.27;;
33453;SDS011;39400;49.744;7.012;2023-05-10T14:42:37;3.63;;;1.23;;
33453;SDS011;39400;49.744;7.012;2023-05-10T14:45:03;7.25;;;0.95;;
33453;SDS011;39400;49.744;7.012;2023-05-10T14:47:29;1.77;;;0.80;;
33453;SDS011;39400;49.744;7.012;2023-05-10T14:49:54;1.83;;;0.50;;
33453;SDS011;39400;49.744;7.012;2023-05-10T14:52:19;1.13;;;0.68;;
33453;SDS011;39400;49.744;7.012;2023-05-10T14:54:45;1.58;;;0.80;;
33453;SDS011;39400;49.744;7.012;2023-05-10T14:57:10;3.33;;;0.93;;
33453;SDS011;39400;49.744;7.012;2023-05-10T14:59:35;1.42;;;0.60;;
33453;SDS011;39400;49.744;7.012;2023-05-10T15:02:00;1.88;;;0.52;;
33453;SDS011;39400;49.744;7.012;2023-05-10T15:04:26;2.20;;;0.63;;
33453;SDS011;39400;49.744;7.012;2023-05-10T15:06:51;2.22;;;0.70;;
33453;SDS011;39400;49.744;7.012;2023-05-10T15:09:16;0.93;;;0.50;;
33453;SDS011;39400;49.744;7.012;2023-05-10T15:11:42;1.55;;;0.82;;
33453;SDS011;39400;49.744;7.012;2023-05-10T15:14:07;2.50;;;0.80;;